sensor_id;sensor_type;location;lat;lon;timestamp;pressure;altitude;pressure_sealevel;temperature;humidity
70488;BME280;57976;48.174;16.370;2022-09-21T00:01:06;99875.23;;;9.89;92.61
70488;BME280;57976;48.174;16.370;2022-09-21T00:03:12;99881.65;;;9.90;92.43
70488;BME280;57976;48.174;16.370;2022-09-21T00:05:18;99874.60;;;9.89;92.12
70488;BME280;57976;48.174;16.370;2022-09-21T00:07:23;99868.86;;;9.90;92.36
70488;BME280;57976;48.174;16.370;2022-09-21T00:09:27;99874.38;;;9.91;92.13
70488;BME280;57976;48.174;16.370;2022-09-21T00:11:33;99875.69;;;9.94;92.13
70488;BME280;57976;48.174;16.370;2022-09-21T00:13:37;99872.08;;;9.94;92.01
70488;BME280;57976;48.174;16.370;2022-09-21T00:15:42;99873.38;;;9.93;91.50
70488;BME280;57976;48.174;16.370;2022-09-21T00:17:50;99877.24;;;9.95;91.64
70488;BME280;57976;48.174;16.370;2022-09-21T00:19:55;99879.60;;;9.96;91.33
70488;BME280;57976;48.174;16.370;2022-09-21T00:22:00;99876.43;;;9.98;91.36
70488;BME280;57976;48.174;16.370;2022-09-21T00:24:06;99870.36;;;9.99;90.96
70488;BME280;57976;48.174;16.370;2022-09-21T00:26:13;99869.35;;;10.00;90.76
70488;BME280;57976;48.174;16.370;2022-09-21T00:28:18;99869.09;;;10.02;90.72
70488;BME280;57976;48.174;16.370;2022-09-21T00:30:23;99874.43;;;10.04;90.29
70488;BME280;57976;48.174;16.370;2022-09-21T00:32:34;99876.80;;;10.06;90.35
70488;BME280;57976;48.174;16.370;2022-09-21T00:34:41;99875.84;;;10.08;90.45
70488;BME280;57976;48.174;16.370;2022-09-21T00:36:46;99870.48;;;10.08;90.03
70488;BME280;57976;48.174;16.370;2022-09-21T00:38:55;99876.23;;;10.09;90.25
70488;BME280;57976;48.174;16.370;2022-09-21T00:41:00;99880.35;;;10.11;89.97
70488;BME280;57976;48.174;16.370;2022-09-21T00:43:16;99880.23;;;10.12;89.87
70488;BME280;57976;48.174;16.370;2022-09-21T00:45:20;99876.94;;;10.13;89.77
70488;BME280;57976;48.174;16.370;2022-09-21T00:47:30;99874.46;;;10.13;89.90
70488;BME280;57976;48.174;16.370;2022-09-21T00:49:36;99874.88;;;10.13;89.90
70488;BME280;57976;48.174;16.370;2022-09-21T00:51:43;99878.67;;;10.13;89.80
70488;BME280;57976;48.174;16.370;2022-09-21T00:53:50;99874.07;;;10.14;89.75
70488;BME280;57976;48.174;16.370;2022-09-21T00:55:57;99871.64;;;10.12;89.91
70488;BME280;57976;48.174;16.370;2022-09-21T00:58:06;99870.41;;;10.12;89.84
70488;BME280;57976;48.174;16.370;2022-09-21T01:00:12;99873.67;;;10.12;89.51
70488;BME280;57976;48.174;16.370;2022-09-21T01:02:17;99869.22;;;10.10;89.44
70488;BME280;57976;48.174;16.370;2022-09-21T01:04:23;99869.31;;;10.11;89.37
70488;BME280;57976;48.174;16.370;2022-09-21T01:06:27;99868.44;;;10.12;89.11
70488;BME280;57976;48.174;16.370;2022-09-21T01:08:32;99863.13;;;10.11;89.10
70488;BME280;57976;48.174;16.370;2022-09-21T01:13:06;99864.90;;;10.09;89.18
70488;BME280;57976;48.174;16.370;2022-09-21T01:15:31;99867.61;;;10.09;89.19
70488;BME280;57976;48.174;16.370;2022-09-21T01:17:43;99868.52;;;10.09;88.77
70488;BME280;57976;48.174;16.370;2022-09-21T01:20:14;99865.70;;;10.09;89.00
70488;BME280;57976;48.174;16.370;2022-09-21T01:22:29;99868.52;;;10.09;89.04
70488;BME280;57976;48.174;16.370;2022-09-21T01:24:44;99866.73;;;10.07;89.17
70488;BME280;57976;48.174;16.370;2022-09-21T01:27:14;99867.64;;;10.07;89.04
70488;BME280;57976;48.174;16.370;2022-09-21T01:29:27;99871.66;;;10.08;88.66
70488;BME280;57976;48.174;16.370;2022-09-21T01:31:37;99869.10;;;10.08;89.01
70488;BME280;57976;48.174;16.370;2022-09-21T01:33:46;99867.56;;;10.08;88.85
70488;BME280;57976;48.174;16.370;2022-09-21T01:35:56;99863.70;;;10.07;88.80
70488;BME280;57976;48.174;16.370;2022-09-21T01:38:06;99866.61;;;10.07;88.74
70488;BME280;57976;48.174;16.370;2022-09-21T01:40:16;99864.35;;;10.08;88.93
70488;BME280;57976;48.174;16.370;2022-09-21T01:42:23;99865.63;;;10.09;88.93
70488;BME280;57976;48.174;16.370;2022-09-21T01:44:30;99869.95;;;10.08;88.81
70488;BME280;57976;48.174;16.370;2022-09-21T01:46:37;99869.48;;;10.08;89.22
70488;BME280;57976;48.174;16.370;2022-09-21T01:48:45;99873.83;;;10.07;88.93
70488;BME280;57976;48.174;16.370;2022-09-21T01:50:54;99874.92;;;10.07;89.06
70488;BME280;57976;48.174;16.370;2022-09-21T01:53:04;99875.85;;;10.08;88.98
70488;BME280;57976;48.174;16.370;2022-09-21T01:55:13;99875.34;;;10.10;88.85
70488;BME280;57976;48.174;16.370;2022-09-21T01:57:24;99876.83;;;10.10;88.39
70488;BME280;57976;48.174;16.370;2022-09-21T01:59:31;99880.39;;;10.12;88.24
70488;BME280;57976;48.174;16.370;2022-09-21T02:01:42;99882.19;;;10.12;88.21
70488;BME280;57976;48.174;16.370;2022-09-21T02:03:52;99884.55;;;10.14;88.16
70488;BME280;57976;48.174;16.370;2022-09-21T02:05:58;99886.30;;;10.16;88.31
70488;BME280;57976;48.174;16.370;2022-09-21T02:08:05;99886.17;;;10.18;87.69
70488;BME280;57976;48.174;16.370;2022-09-21T02:10:16;99884.29;;;10.21;87.72
70488;BME280;57976;48.174;16.370;2022-09-21T02:12:21;99884.11;;;10.23;87.47
70488;BME280;57976;48.174;16.370;2022-09-21T02:14:26;99883.53;;;10.27;87.43
70488;BME280;57976;48.174;16.370;2022-09-21T02:16:35;99884.77;;;10.30;86.88
70488;BME280;57976;48.174;16.370;2022-09-21T02:18:46;99886.21;;;10.33;86.85
70488;BME280;57976;48.174;16.370;2022-09-21T02:20:58;99882.92;;;10.33;86.96
70488;BME280;57976;48.174;16.370;2022-09-21T02:23:07;99885.37;;;10.35;86.23
70488;BME280;57976;48.174;16.370;2022-09-21T02:25:17;99889.52;;;10.34;86.46
70488;BME280;57976;48.174;16.370;2022-09-21T02:27:31;99887.17;;;10.35;86.18
70488;BME280;57976;48.174;16.370;2022-09-21T02:29:43;99893.40;;;10.35;85.97
70488;BME280;57976;48.174;16.370;2022-09-21T02:31:53;99892.18;;;10.36;85.74
70488;BME280;57976;48.174;16.370;2022-09-21T02:34:06;99890.64;;;10.37;85.40
70488;BME280;57976;48.174;16.370;2022-09-21T02:36:20;99897.12;;;10.34;85.12
70488;BME280;57976;48.174;16.370;2022-09-21T02:38:34;99897.02;;;10.33;85.26
70488;BME280;57976;48.174;16.370;2022-09-21T02:40:45;99894.38;;;10.31;85.08
70488;BME280;57976;48.174;16.370;2022-09-21T02:42:55;99897.37;;;10.31;85.21
70488;BME280;57976;48.174;16.370;2022-09-21T02:45:04;99898.55;;;10.30;85.22
70488;BME280;57976;48.174;16.370;2022-09-21T02:47:14;99900.14;;;10.30;85.39
70488;BME280;57976;48.174;16.370;2022-09-21T02:49:23;99901.11;;;10.30;85.25
70488;BME280;57976;48.174;16.370;2022-09-21T02:51:31;99906.06;;;10.30;84.89
70488;BME280;57976;48.174;16.370;2022-09-21T02:53:38;99904.17;;;10.29;85.01
70488;BME280;57976;48.174;16.370;2022-09-21T02:55:44;99906.27;;;10.29;85.29
70488;BME280;57976;48.174;16.370;2022-09-21T02:57:50;99914.33;;;10.30;84.16
70488;BME280;57976;48.174;16.370;2022-09-21T02:59:56;99906.04;;;10.33;84.02
70488;BME280;57976;48.174;16.370;2022-09-21T03:02:01;99916.52;;;10.33;83.54
70488;BME280;57976;48.174;16.370;2022-09-21T03:04:05;99913.71;;;10.34;83.48
70488;BME280;57976;48.174;16.370;2022-09-21T03:06:11;99914.17;;;10.35;83.64
70488;BME280;57976;48.174;16.370;2022-09-21T03:08:15;99911.29;;;10.36;83.83
70488;BME280;57976;48.174;16.370;2022-09-21T03:10:20;99914.50;;;10.38;83.85
70488;BME280;57976;48.174;16.370;2022-09-21T03:12:25;99916.05;;;10.38;83.70
70488;BME280;57976;48.174;16.370;2022-09-21T03:14:30;99922.73;;;10.39;83.54
70488;BME280;57976;48.174;16.370;2022-09-21T03:16:34;99922.47;;;10.40;83.45
70488;BME280;57976;48.174;16.370;2022-09-21T03:18:39;99931.80;;;10.42;83.08
70488;BME280;57976;48.174;16.370;2022-09-21T03:20:45;99927.53;;;10.45;82.80
70488;BME280;57976;48.174;16.370;2022-09-21T03:22:53;99930.84;;;10.44;83.08
70488;BME280;57976;48.174;16.370;2022-09-21T03:24:57;99931.42;;;10.45;82.81
70488;BME280;57976;48.174;16.370;2022-09-21T03:27:02;99934.05;;;10.45;82.46
70488;BME280;57976;48.174;16.370;2022-09-21T03:29:07;99930.14;;;10.46;82.83
70488;BME280;57976;48.174;16.370;2022-09-21T03:31:12;99933.72;;;10.48;82.57
70488;BME280;57976;48.174;16.370;2022-09-21T03:33:17;99936.07;;;10.49;82.77
70488;BME280;57976;48.174;16.370;2022-09-21T03:35:23;99933.92;;;10.50;82.58
70488;BME280;57976;48.174;16.370;2022-09-21T03:37:28;99934.02;;;10.51;82.53
70488;BME280;57976;48.174;16.370;2022-09-21T03:39:33;99936.68;;;10.52;82.61
70488;BME280;57976;48.174;16.370;2022-09-21T03:41:38;99936.71;;;10.54;82.45
70488;BME280;57976;48.174;16.370;2022-09-21T03:43:42;99940.23;;;10.54;82.46
70488;BME280;57976;48.174;16.370;2022-09-21T03:45:48;99937.63;;;10.52;82.51
70488;BME280;57976;48.174;16.370;2022-09-21T03:47:55;99938.11;;;10.51;82.59
70488;BME280;57976;48.174;16.370;2022-09-21T03:49:59;99941.52;;;10.49;82.80
70488;BME280;57976;48.174;16.370;2022-09-21T03:52:04;99942.58;;;10.48;82.68
70488;BME280;57976;48.174;16.370;2022-09-21T03:54:09;99944.66;;;10.47;83.08
70488;BME280;57976;48.174;16.370;2022-09-21T03:56:14;99944.83;;;10.45;82.76
70488;BME280;57976;48.174;16.370;2022-09-21T03:58:19;99950.42;;;10.43;82.84
70488;BME280;57976;48.174;16.370;2022-09-21T04:00:23;99950.13;;;10.40;83.07
70488;BME280;57976;48.174;16.370;2022-09-21T04:02:28;99952.59;;;10.37;83.63
70488;BME280;57976;48.174;16.370;2022-09-21T04:04:33;99955.08;;;10.35;83.68
70488;BME280;57976;48.174;16.370;2022-09-21T04:06:37;99958.60;;;10.33;83.58
70488;BME280;57976;48.174;16.370;2022-09-21T04:08:42;99958.35;;;10.30;83.67
70488;BME280;57976;48.174;16.370;2022-09-21T04:10:47;99965.98;;;10.28;83.97
70488;BME280;57976;48.174;16.370;2022-09-21T04:12:57;99958.88;;;10.26;84.10
70488;BME280;57976;48.174;16.370;2022-09-21T04:15:02;99962.98;;;10.24;84.33
70488;BME280;57976;48.174;16.370;2022-09-21T04:17:07;99964.08;;;10.23;84.27
70488;BME280;57976;48.174;16.370;2022-09-21T04:19:12;99957.67;;;10.20;84.29
70488;BME280;57976;48.174;16.370;2022-09-21T04:21:17;99959.44;;;10.17;84.94
70488;BME280;57976;48.174;16.370;2022-09-21T04:23:22;99965.45;;;10.14;84.88
70488;BME280;57976;48.174;16.370;2022-09-21T04:25:26;99963.95;;;10.15;84.98
70488;BME280;57976;48.174;16.370;2022-09-21T04:27:31;99963.65;;;10.14;84.98
70488;BME280;57976;48.174;16.370;2022-09-21T04:29:37;99966.30;;;10.13;84.96
70488;BME280;57976;48.174;16.370;2022-09-21T04:31:42;99967.14;;;10.12;85.42
70488;BME280;57976;48.174;16.370;2022-09-21T04:33:49;99963.83;;;10.08;85.31
70488;BME280;57976;48.174;16.370;2022-09-21T04:35:56;99967.93;;;10.07;85.93
70488;BME280;57976;48.174;16.370;2022-09-21T04:38:01;99967.01;;;10.03;86.32
70488;BME280;57976;48.174;16.370;2022-09-21T04:40:07;99970.55;;;10.01;86.57
70488;BME280;57976;48.174;16.370;2022-09-21T04:42:12;99969.59;;;9.97;86.94
70488;BME280;57976;48.174;16.370;2022-09-21T04:44:17;99978.42;;;9.95;87.18
70488;BME280;57976;48.174;16.370;2022-09-21T04:46:22;99977.62;;;9.93;87.54
70488;BME280;57976;48.174;16.370;2022-09-21T04:48:27;99980.34;;;9.91;87.42
70488;BME280;57976;48.174;16.370;2022-09-21T04:50:32;99985.57;;;9.90;88.36
70488;BME280;57976;48.174;16.370;2022-09-21T04:52:40;99997.11;;;9.88;88.72
70488;BME280;57976;48.174;16.370;2022-09-21T04:54:44;99990.67;;;9.88;89.06
70488;BME280;57976;48.174;16.370;2022-09-21T04:56:49;99993.21;;;9.85;89.15
70488;BME280;57976;48.174;16.370;2022-09-21T04:58:54;99992.06;;;9.85;89.36
70488;BME280;57976;48.174;16.370;2022-09-21T05:00:59;99993.05;;;9.85;89.46
70488;BME280;57976;48.174;16.370;2022-09-21T05:03:04;99997.71;;;9.85;89.89
70488;BME280;57976;48.174;16.370;2022-09-21T05:05:11;99995.23;;;9.84;89.48
70488;BME280;57976;48.174;16.370;2022-09-21T05:07:16;100000.05;;;9.83;89.74
70488;BME280;57976;48.174;16.370;2022-09-21T05:09:21;100000.20;;;9.82;90.19
70488;BME280;57976;48.174;16.370;2022-09-21T05:11:26;100000.80;;;9.81;90.05
70488;BME280;57976;48.174;16.370;2022-09-21T05:13:31;99999.04;;;9.81;89.98
70488;BME280;57976;48.174;16.370;2022-09-21T05:15:37;100001.47;;;9.82;90.07
70488;BME280;57976;48.174;16.370;2022-09-21T05:17:42;100008.14;;;9.82;90.56
70488;BME280;57976;48.174;16.370;2022-09-21T05:19:46;100004.59;;;9.82;90.48
70488;BME280;57976;48.174;16.370;2022-09-21T05:21:51;100004.13;;;9.82;90.24
70488;BME280;57976;48.174;16.370;2022-09-21T05:23:56;100005.95;;;9.83;90.50
70488;BME280;57976;48.174;16.370;2022-09-21T05:26:01;100012.19;;;9.87;90.63
70488;BME280;57976;48.174;16.370;2022-09-21T05:28:07;100012.79;;;9.88;90.18
70488;BME280;57976;48.174;16.370;2022-09-21T05:30:14;100014.80;;;9.90;90.28
70488;BME280;57976;48.174;16.370;2022-09-21T05:32:23;100015.95;;;9.93;89.79
70488;BME280;57976;48.174;16.370;2022-09-21T05:34:36;100019.38;;;9.95;89.33
70488;BME280;57976;48.174;16.370;2022-09-21T05:36:51;100020.58;;;9.98;89.07
70488;BME280;57976;48.174;16.370;2022-09-21T05:39:02;100021.29;;;10.04;88.93
70488;BME280;57976;48.174;16.370;2022-09-21T05:41:08;100024.45;;;10.09;88.79
70488;BME280;57976;48.174;16.370;2022-09-21T05:43:14;100029.36;;;10.13;88.24
70488;BME280;57976;48.174;16.370;2022-09-21T05:45:19;100031.02;;;10.17;87.55
70488;BME280;57976;48.174;16.370;2022-09-21T05:47:31;100028.48;;;10.19;87.31
70488;BME280;57976;48.174;16.370;2022-09-21T05:49:50;100029.77;;;10.23;87.14
70488;BME280;57976;48.174;16.370;2022-09-21T05:52:05;100034.87;;;10.26;86.99
70488;BME280;57976;48.174;16.370;2022-09-21T05:54:17;100039.33;;;10.30;86.70
70488;BME280;57976;48.174;16.370;2022-09-21T05:56:39;100038.29;;;10.36;86.15
70488;BME280;57976;48.174;16.370;2022-09-21T05:58:52;100036.38;;;10.39;86.34
70488;BME280;57976;48.174;16.370;2022-09-21T06:01:12;100041.23;;;10.43;86.00
70488;BME280;57976;48.174;16.370;2022-09-21T06:03:28;100037.95;;;10.48;85.76
70488;BME280;57976;48.174;16.370;2022-09-21T06:05:33;100043.13;;;10.55;85.98
70488;BME280;57976;48.174;16.370;2022-09-21T06:07:41;100030.24;;;10.63;85.83
70488;BME280;57976;48.174;16.370;2022-09-21T06:09:51;100030.94;;;10.72;85.55
70488;BME280;57976;48.174;16.370;2022-09-21T06:11:55;100026.44;;;10.81;84.73
70488;BME280;57976;48.174;16.370;2022-09-21T06:14:00;100027.26;;;10.87;84.51
70488;BME280;57976;48.174;16.370;2022-09-21T06:16:06;100034.82;;;10.95;84.29
70488;BME280;57976;48.174;16.370;2022-09-21T06:18:11;100036.77;;;11.04;83.53
70488;BME280;57976;48.174;16.370;2022-09-21T06:20:21;100033.91;;;11.10;82.80
70488;BME280;57976;48.174;16.370;2022-09-21T06:22:26;100033.69;;;11.16;83.12
70488;BME280;57976;48.174;16.370;2022-09-21T06:24:31;100034.33;;;11.21;82.87
70488;BME280;57976;48.174;16.370;2022-09-21T06:26:36;100039.20;;;11.32;82.04
70488;BME280;57976;48.174;16.370;2022-09-21T06:28:40;100042.05;;;11.40;81.91
70488;BME280;57976;48.174;16.370;2022-09-21T06:30:51;100045.05;;;11.49;81.14
70488;BME280;57976;48.174;16.370;2022-09-21T06:32:59;100039.09;;;11.54;80.91
70488;BME280;57976;48.174;16.370;2022-09-21T06:35:05;100050.42;;;11.60;80.79
70488;BME280;57976;48.174;16.370;2022-09-21T06:37:09;100049.32;;;11.63;79.64
70488;BME280;57976;48.174;16.370;2022-09-21T06:39:14;100044.73;;;11.64;79.20
70488;BME280;57976;48.174;16.370;2022-09-21T06:41:18;100046.23;;;11.65;79.61
70488;BME280;57976;48.174;16.370;2022-09-21T06:43:25;100048.89;;;11.70;80.17
70488;BME280;57976;48.174;16.370;2022-09-21T06:45:30;100047.27;;;11.74;79.67
70488;BME280;57976;48.174;16.370;2022-09-21T06:47:35;100051.61;;;11.71;79.22
70488;BME280;57976;48.174;16.370;2022-09-21T06:49:39;100053.30;;;11.73;79.38
70488;BME280;57976;48.174;16.370;2022-09-21T06:51:47;100054.09;;;11.76;79.38
70488;BME280;57976;48.174;16.370;2022-09-21T06:53:56;100057.95;;;11.81;79.10
70488;BME280;57976;48.174;16.370;2022-09-21T06:56:05;100061.09;;;11.83;78.57
70488;BME280;57976;48.174;16.370;2022-09-21T06:58:10;100067.32;;;11.81;78.01
70488;BME280;57976;48.174;16.370;2022-09-21T07:00:16;100063.51;;;11.78;78.21
70488;BME280;57976;48.174;16.370;2022-09-21T07:02:20;100064.06;;;11.76;78.30
70488;BME280;57976;48.174;16.370;2022-09-21T07:04:25;100062.27;;;11.74;78.69
70488;BME280;57976;48.174;16.370;2022-09-21T07:06:30;100063.35;;;11.75;78.27
70488;BME280;57976;48.174;16.370;2022-09-21T07:08:35;100063.23;;;11.76;78.57
70488;BME280;57976;48.174;16.370;2022-09-21T07:11:02;100062.77;;;11.77;78.31
70488;BME280;57976;48.174;16.370;2022-09-21T07:13:07;100062.09;;;11.76;77.87
70488;BME280;57976;48.174;16.370;2022-09-21T07:15:12;100070.04;;;11.75;78.15
70488;BME280;57976;48.174;16.370;2022-09-21T07:17:16;100065.45;;;11.75;78.38
70488;BME280;57976;48.174;16.370;2022-09-21T07:19:21;100070.28;;;11.78;78.54
70488;BME280;57976;48.174;16.370;2022-09-21T07:21:26;100071.23;;;11.84;78.56
70488;BME280;57976;48.174;16.370;2022-09-21T07:23:31;100070.71;;;11.89;78.15
70488;BME280;57976;48.174;16.370;2022-09-21T07:25:35;100077.32;;;11.96;77.49
70488;BME280;57976;48.174;16.370;2022-09-21T07:27:40;100075.21;;;12.00;76.37
70488;BME280;57976;48.174;16.370;2022-09-21T07:29:45;100078.27;;;12.02;75.86
70488;BME280;57976;48.174;16.370;2022-09-21T07:31:49;100072.52;;;12.01;76.09
70488;BME280;57976;48.174;16.370;2022-09-21T07:33:56;100077.92;;;12.05;75.58
70488;BME280;57976;48.174;16.370;2022-09-21T07:36:02;100072.11;;;12.07;75.78
70488;BME280;57976;48.174;16.370;2022-09-21T07:38:07;100072.35;;;12.15;76.29
70488;BME280;57976;48.174;16.370;2022-09-21T07:40:12;100073.91;;;12.24;75.39
70488;BME280;57976;48.174;16.370;2022-09-21T07:42:17;100079.59;;;12.29;74.90
70488;BME280;57976;48.174;16.370;2022-09-21T07:44:22;100071.57;;;12.33;74.13
70488;BME280;57976;48.174;16.370;2022-09-21T07:46:27;100070.48;;;12.38;75.08
70488;BME280;57976;48.174;16.370;2022-09-21T07:48:31;100070.92;;;12.48;74.01
70488;BME280;57976;48.174;16.370;2022-09-21T07:50:36;100076.84;;;12.53;73.21
70488;BME280;57976;48.174;16.370;2022-09-21T07:52:41;100069.73;;;12.54;73.07
70488;BME280;57976;48.174;16.370;2022-09-21T07:54:45;100070.36;;;12.55;73.56
70488;BME280;57976;48.174;16.370;2022-09-21T07:56:50;100079.84;;;12.58;73.22
70488;BME280;57976;48.174;16.370;2022-09-21T07:58:55;100086.58;;;12.58;72.61
70488;BME280;57976;48.174;16.370;2022-09-21T08:01:03;100080.55;;;12.55;73.45
70488;BME280;57976;48.174;16.370;2022-09-21T08:03:07;100089.30;;;12.55;73.18
70488;BME280;57976;48.174;16.370;2022-09-21T08:05:12;100084.36;;;12.50;72.84
70488;BME280;57976;48.174;16.370;2022-09-21T08:07:17;100087.69;;;12.45;73.00
70488;BME280;57976;48.174;16.370;2022-09-21T08:09:21;100090.66;;;12.43;73.38
70488;BME280;57976;48.174;16.370;2022-09-21T08:11:28;100089.58;;;12.46;73.46
70488;BME280;57976;48.174;16.370;2022-09-21T08:13:33;100088.55;;;12.51;74.02
70488;BME280;57976;48.174;16.370;2022-09-21T08:15:37;100088.54;;;12.60;73.97
70488;BME280;57976;48.174;16.370;2022-09-21T08:17:53;100093.29;;;12.69;73.51
70488;BME280;57976;48.174;16.370;2022-09-21T08:19:58;100090.02;;;12.72;72.94
70488;BME280;57976;48.174;16.370;2022-09-21T08:22:03;100082.71;;;12.74;73.00
70488;BME280;57976;48.174;16.370;2022-09-21T08:24:08;100091.88;;;12.81;73.01
70488;BME280;57976;48.174;16.370;2022-09-21T08:26:14;100085.71;;;12.83;72.40
70488;BME280;57976;48.174;16.370;2022-09-21T08:28:19;100087.34;;;12.84;72.73
70488;BME280;57976;48.174;16.370;2022-09-21T08:30:23;100088.48;;;12.85;72.18
70488;BME280;57976;48.174;16.370;2022-09-21T08:32:28;100084.34;;;12.80;72.40
70488;BME280;57976;48.174;16.370;2022-09-21T08:34:53;100079.05;;;12.75;73.07
70488;BME280;57976;48.174;16.370;2022-09-21T08:36:57;100087.48;;;12.72;72.95
70488;BME280;57976;48.174;16.370;2022-09-21T08:39:03;100092.82;;;12.67;73.17
70488;BME280;57976;48.174;16.370;2022-09-21T08:41:16;100087.25;;;12.60;73.34
70488;BME280;57976;48.174;16.370;2022-09-21T08:43:32;100080.57;;;12.56;74.21
70488;BME280;57976;48.174;16.370;2022-09-21T08:45:42;100081.59;;;12.61;74.12
70488;BME280;57976;48.174;16.370;2022-09-21T08:47:49;100082.00;;;12.66;74.30
70488;BME280;57976;48.174;16.370;2022-09-21T08:49:58;100081.42;;;12.75;74.03
70488;BME280;57976;48.174;16.370;2022-09-21T08:52:07;100078.88;;;12.82;74.11
70488;BME280;57976;48.174;16.370;2022-09-21T08:54:26;100086.52;;;12.92;73.07
70488;BME280;57976;48.174;16.370;2022-09-21T08:56:32;100080.30;;;13.01;73.22
70488;BME280;57976;48.174;16.370;2022-09-21T08:58:57;100083.83;;;13.13;72.86
70488;BME280;57976;48.174;16.370;2022-09-21T09:01:13;100093.38;;;13.23;71.82
70488;BME280;57976;48.174;16.370;2022-09-21T09:03:37;100085.12;;;13.27;70.92
70488;BME280;57976;48.174;16.370;2022-09-21T09:05:53;100074.98;;;13.32;71.37
70488;BME280;57976;48.174;16.370;2022-09-21T09:10:40;100080.02;;;13.42;70.57
70488;BME280;57976;48.174;16.370;2022-09-21T09:12:59;100083.83;;;13.46;70.07
70488;BME280;57976;48.174;16.370;2022-09-21T09:15:20;100077.17;;;13.49;69.40
70488;BME280;57976;48.174;16.370;2022-09-21T09:17:45;100074.63;;;13.51;69.54
70488;BME280;57976;48.174;16.370;2022-09-21T09:19:57;100081.21;;;13.59;68.90
70488;BME280;57976;48.174;16.370;2022-09-21T09:22:09;100075.16;;;13.66;68.56
70488;BME280;57976;48.174;16.370;2022-09-21T09:24:18;100071.19;;;13.71;69.24
70488;BME280;57976;48.174;16.370;2022-09-21T09:26:31;100066.09;;;13.79;68.75
70488;BME280;57976;48.174;16.370;2022-09-21T09:28:43;100072.36;;;13.85;67.39
70488;BME280;57976;48.174;16.370;2022-09-21T09:30:58;100064.00;;;13.87;68.26
70488;BME280;57976;48.174;16.370;2022-09-21T09:33:07;100071.35;;;13.95;67.89
70488;BME280;57976;48.174;16.370;2022-09-21T09:35:24;100066.36;;;13.99;67.82
70488;BME280;57976;48.174;16.370;2022-09-21T09:37:33;100078.48;;;14.07;66.86
70488;BME280;57976;48.174;16.370;2022-09-21T09:39:44;100068.45;;;14.15;66.61
70488;BME280;57976;48.174;16.370;2022-09-21T09:42:03;100067.53;;;14.24;66.65
70488;BME280;57976;48.174;16.370;2022-09-21T09:44:24;100057.71;;;14.33;66.68
70488;BME280;57976;48.174;16.370;2022-09-21T09:46:38;100061.73;;;14.44;66.42
70488;BME280;57976;48.174;16.370;2022-09-21T09:49:12;100063.13;;;14.54;66.10
70488;BME280;57976;48.174;16.370;2022-09-21T09:51:18;100064.11;;;14.60;65.89
70488;BME280;57976;48.174;16.370;2022-09-21T09:53:25;100065.89;;;14.66;65.97
70488;BME280;57976;48.174;16.370;2022-09-21T09:55:36;100063.14;;;14.74;64.30
70488;BME280;57976;48.174;16.370;2022-09-21T09:57:41;100059.05;;;14.76;64.94
70488;BME280;57976;48.174;16.370;2022-09-21T09:59:49;100058.41;;;14.83;64.29
70488;BME280;57976;48.174;16.370;2022-09-21T10:02:03;100062.86;;;14.89;62.64
70488;BME280;57976;48.174;16.370;2022-09-21T10:04:09;100061.66;;;14.90;63.13
70488;BME280;57976;48.174;16.370;2022-09-21T10:06:30;100066.09;;;14.90;62.99
70488;BME280;57976;48.174;16.370;2022-09-21T10:08:43;100059.23;;;14.84;63.41
70488;BME280;57976;48.174;16.370;2022-09-21T10:10:48;100059.64;;;14.80;63.03
70488;BME280;57976;48.174;16.370;2022-09-21T10:12:53;100070.31;;;14.79;62.37
70488;BME280;57976;48.174;16.370;2022-09-21T10:14:59;100065.41;;;14.75;61.25
70488;BME280;57976;48.174;16.370;2022-09-21T10:17:06;100062.43;;;14.76;61.51
70488;BME280;57976;48.174;16.370;2022-09-21T10:19:17;100057.03;;;14.76;61.31
70488;BME280;57976;48.174;16.370;2022-09-21T10:21:25;100052.70;;;14.76;61.52
70488;BME280;57976;48.174;16.370;2022-09-21T10:23:31;100053.23;;;14.78;61.83
70488;BME280;57976;48.174;16.370;2022-09-21T10:25:37;100042.63;;;14.80;61.96
70488;BME280;57976;48.174;16.370;2022-09-21T10:27:45;100051.77;;;14.85;61.43
70488;BME280;57976;48.174;16.370;2022-09-21T10:29:51;100050.85;;;14.88;60.81
70488;BME280;57976;48.174;16.370;2022-09-21T10:31:57;100041.39;;;14.89;61.39
70488;BME280;57976;48.174;16.370;2022-09-21T10:34:13;100044.60;;;14.94;61.47
70488;BME280;57976;48.174;16.370;2022-09-21T10:36:32;100041.83;;;14.96;61.10
70488;BME280;57976;48.174;16.370;2022-09-21T10:38:37;100039.27;;;14.96;61.43
70488;BME280;57976;48.174;16.370;2022-09-21T10:40:43;100044.80;;;14.97;61.59
70488;BME280;57976;48.174;16.370;2022-09-21T10:42:52;100033.20;;;14.97;62.07
70488;BME280;57976;48.174;16.370;2022-09-21T10:45:12;100034.88;;;14.99;60.10
70488;BME280;57976;48.174;16.370;2022-09-21T10:47:20;100029.41;;;15.00;60.44
70488;BME280;57976;48.174;16.370;2022-09-21T10:49:27;100031.58;;;15.01;60.32
70488;BME280;57976;48.174;16.370;2022-09-21T10:51:32;100028.02;;;15.01;60.61
70488;BME280;57976;48.174;16.370;2022-09-21T10:53:37;100027.45;;;15.01;60.58
70488;BME280;57976;48.174;16.370;2022-09-21T10:55:45;100027.65;;;15.01;59.76
70488;BME280;57976;48.174;16.370;2022-09-21T10:58:12;100024.23;;;15.09;59.51
70488;BME280;57976;48.174;16.370;2022-09-21T11:00:30;100021.27;;;15.17;59.22
70488;BME280;57976;48.174;16.370;2022-09-21T11:02:37;100026.19;;;15.25;58.05
70488;BME280;57976;48.174;16.370;2022-09-21T11:04:46;100024.52;;;15.30;56.15
70488;BME280;57976;48.174;16.370;2022-09-21T11:06:56;100029.71;;;15.31;55.57
70488;BME280;57976;48.174;16.370;2022-09-21T11:09:05;100025.05;;;15.30;55.62
70488;BME280;57976;48.174;16.370;2022-09-21T11:11:24;100028.19;;;15.30;54.37